Hauptseite
METAR-TAF:

METAR-TAF

Flughäfen :

Flugplatz Padua

Padua, Italien

Breite: 45-23-45N, Länge: 11-50-53E, Höhe: 13 m

Beobachtung

Neuester Wetterbericht von vor 14 Stunden und 16 Minuten, um 12:04 UTC
Wind 13 kt aus Ost
Temperatur 21°C
Luftfeuchtigkeit 73%
Luftdruck 1015 hPa
Sichtweite 10 km oder mehr
Durchbrochene Bewölkung in der Höhe von 3000 ft
Regen

METAR: LIPU 221204Z 08013KT 9999 RA BKN030 21/16 Q1015

Zeit: 04:20 (02:20 UTC)


TAF: fehlend

Wetterbeobachtungen und Prognosen von mehr als 4000 Flughäfen (METAR und TAF Bericht).

Die verfügbaren Stationen werden durch gelbe und rote Markierungen auf der Karte dargestellt.

Führen Sie die Maus auf sie, um den Namen der Station zu sehen.

Darauf klicken, um die Beobachtung von Wetterbeobachtungen und Prognosen zu sehen.

Um die Karte zu ändern : klicken Sie auf den grünen Tasten mit einem schwarzen Kreuz Zum Vergrößern, auf den grünen Button mit einem Gedankenstrich zu verkleinern, oder auf die grünen Pfeile für benachbarte Karten.


METAR-TAF: